aviador You're here:

KBLU Decoded Metar

EMIGRANT GAP in CA, USA
Report Time2018-01-19 16:52:00
UTC Time2018-01-19 17:10:52
Flight Rules lifr LIFR
Wind140° at 06 kt
W.Decomp.*RWY 15: 5.4 kt HW 2.6 kt LCW
W.Rank140° ranks 7
Current wind is above 140° avg. (5.1)
Visibility9999 m
Phenomena:N/A
Clouds:Overcast 002 Hf
Ceiling200 ft
Temp-2°C (ISA -7)
Dew Point-2°C (100% RH)
AAT-6.4°C
QNH1017 hPa
Density Alt4,442 ft
Elevation5,279 ft
Report Wrong Elevation
Raw Report
KBLU 191652Z AUTO 14006KT 9SM OVC002 M02/M02 A3003 RMK AO2 SLP180
T10171017=

Extra information for KBLU:More info

Metar Taf Metar & Taf Last 4 Metars F.Rules Stats Wind Profile Meteogram Temp Stats Airport Information Weather charts Add Link Nearby VenuesMetar ALERT Operation Metar Decoded Social comments

AIRNAV info for KBLU